Time;durP1;ratioP1;P1;durP2;ratioP2;P2;SDS_P1;SDS_P2;PMS_P1;PMS_P2;Temp;Humidity;BMP_temperature;BMP_pressure;BME280_temperature;BME280_humidity;BME280_pressure;Samples;Min_cycle;Max_cycle;Signal;HPM_P1;HPM_P2
2021/04/01 00:02:57;;;;;;;;;;;;;;;;;;10490962;28;1977;-19
2021/04/01 00:08:18;;;;;;;;;;;;;;;;;;10491037;28;1010;-19
2021/04/01 00:13:38;;;;;;;;;;;;;;;;;;10490639;28;1150;-20
2021/04/01 00:18:59;;;;;;;;;;;;;;;;;;10482610;28;1187;-19
2021/04/01 00:24:20;;;;;;;;;;;;;;;;;;10448941;28;1902;-19
2021/04/01 00:29:40;;;;;;;;;;;;;;;;;;10448574;28;1244;-20
2021/04/01 00:35:01;;;;;;;;;;;;;;;;;;10448446;28;972;-19
2021/04/01 00:40:22;;;;;;;;;;;;;;;;;;10448200;28;1898;-20
2021/04/01 00:45:42;;;;;;;;;;;;;;;;;;10448259;28;1098;-20
2021/04/01 00:51:02;;;;;;;;;;;;;;;;;;10448109;28;1075;-21
2021/04/01 00:56:23;;;;;;;;;;;;;;;;;;10446890;28;1224;-19
2021/04/01 01:02:04;;;;;;;;;;;;;;;;;;10459965;28;1989;-21
2021/04/01 01:07:26;;;;;;;;;;;;;;;;;;10488607;28;1082;-20
2021/04/01 01:12:46;;;;;;;;;;;;;;;;;;10487921;28;1279;-19
2021/04/01 01:18:07;;;;;;;;;;;;;;;;;;10488173;28;1062;-20
2021/04/01 01:23:28;;;;;;;;;;;;;;;;;;10446338;28;1898;-20
2021/04/01 01:28:48;;;;;;;;;;;;;;;;;;10446256;28;1147;-19
2021/04/01 01:34:09;;;;;;;;;;;;;;;;;;10445912;28;1059;-18
2021/04/01 01:39:29;;;;;;;;;;;;;;;;;;10446230;28;1015;-19
2021/04/01 01:44:50;;;;;;;;;;;;;;;;;;10457968;28;1977;-20
2021/04/01 01:50:11;;;;;;;;;;;;;;;;;;10487338;28;1018;-20
2021/04/01 01:55:32;;;;;;;;;;;;;;;;;;10487412;28;991;-17
2021/04/01 02:00:54;;;;;;;;;;;;;;;;;;10486897;28;1989;-20
2021/04/01 02:06:15;;;;;;;;;;;;;;;;;;10487152;28;989;-20
2021/04/01 02:11:36;;;;;;;;;;;;;;;;;;10486645;28;1185;-20
2021/04/01 02:16:56;;;;;;;;;;;;;;;;;;10486914;28;1130;-20
2021/04/01 02:22:17;;;;;;;;;;;;;;;;;;10454615;28;1979;-20
2021/04/01 02:27:38;;;;;;;;;;;;;;;;;;10445353;28;989;-19
2021/04/01 02:32:58;;;;;;;;;;;;;;;;;;10444810;28;1261;-20
2021/04/01 02:38:19;;;;;;;;;;;;;;;;;;10445126;28;981;-19
2021/04/01 02:43:40;;;;;;;;;;;;;;;;;;10449074;28;1894;-21
2021/04/01 02:49:00;;;;;;;;;;;;;;;;;;10452833;28;958;-21
2021/04/01 02:54:20;;;;;;;;;;;;;;;;;;10452222;28;975;-19
2021/04/01 02:59:41;;;;;;;;;;;;;;;;;;10452069;28;1229;-20
2021/04/01 03:05:06;;;;;;;;;;;;;;;;;;10484168;28;1977;-18
2021/04/01 03:10:26;;;;;;;;;;;;;;;;;;10492963;28;1257;-20
2021/04/01 03:15:49;;;;;;;;;;;;;;;;;;10493115;28;1227;-19
2021/04/01 03:21:09;;;;;;;;;;;;;;;;;;10471534;28;2012;-20
2021/04/01 03:26:30;;;;;;;;;;;;;;;;;;10421963;28;1470;-20
2021/04/01 03:31:50;;;;;;;;;;;;;;;;;;10409563;28;1057;-20
2021/04/01 03:37:11;;;;;;;;;;;;;;;;;;10409850;28;1455;-20
2021/04/01 03:42:31;;;;;;;;;;;;;;;;;;10409369;28;1910;-20
2021/04/01 03:47:51;;;;;;;;;;;;;;;;;;10472152;28;1017;-20
2021/04/01 03:53:12;;;;;;;;;;;;;;;;;;10490540;28;1256;-19
2021/04/01 03:58:47;;;;;;;;;;;;;;;;;;10490244;28;1205;-21
2021/04/01 04:10:14;;;;;;;;;;;;;;;;;;10486462;28;1484;-19
2021/04/01 04:15:34;;;;;;;;;;;;;;;;;;10490846;28;1078;-20
2021/04/01 04:20:55;;;;;;;;;;;;;;;;;;10470977;28;1902;-17
2021/04/01 04:26:16;;;;;;;;;;;;;;;;;;10448686;28;1011;-20
2021/04/01 04:31:36;;;;;;;;;;;;;;;;;;10448219;28;988;-20
2021/04/01 04:36:56;;;;;;;;;;;;;;;;;;10447954;28;1074;-20
2021/04/01 04:42:17;;;;;;;;;;;;;;;;;;10447823;28;1979;-19
2021/04/01 04:47:37;;;;;;;;;;;;;;;;;;10447768;28;1341;-20
2021/04/01 04:52:58;;;;;;;;;;;;;;;;;;10447399;28;1057;-18
2021/04/01 04:58:26;;;;;;;;;;;;;;;;;;10447145;28;1385;-19
2021/04/01 05:09:26;;;;;;;;;;;;;;;;;;10487934;28;1197;-20
2021/04/01 05:14:46;;;;;;;;;;;;;;;;;;10487621;28;1267;-20
2021/04/01 05:20:08;;;;;;;;;;;;;;;;;;10479368;28;1256;-19
2021/04/01 05:25:29;;;;;;;;;;;;;;;;;;10446312;28;1946;-20
2021/04/01 05:30:50;;;;;;;;;;;;;;;;;;10446173;28;1030;-20
2021/04/01 05:36:15;;;;;;;;;;;;;;;;;;10445913;28;1162;-19
2021/04/01 05:41:37;;;;;;;;;;;;;;;;;;10445505;28;1902;-20
2021/04/01 05:47:09;;;;;;;;;;;;;;;;;;10468208;28;1028;-21
2021/04/01 06:09:20;;;;;;;;;;;;;;;;;;10486297;28;1117;-19
2021/04/01 06:15:01;;;;;;;;;;;;;;;;;;10486454;28;1032;-17
2021/04/01 06:20:27;;;;;;;;;;;;;;;;;;10485812;28;1060;-19
2021/04/01 06:25:51;;;;;;;;;;;;;;;;;;10453307;28;1000;-18
2021/04/01 06:31:12;;;;;;;;;;;;;;;;;;10450421;28;1000;-20
2021/04/01 06:36:34;;;;;;;;;;;;;;;;;;10410126;28;2456;-18
2021/04/01 06:42:02;;;;;;;;;;;;;;;;;;10405328;28;1997;-19
2021/04/01 06:47:24;;;;;;;;;;;;;;;;;;10406165;28;1117;-24
2021/04/01 06:53:17;;;;;;;;;;;;;;;;;;10443932;28;1176;-20
2021/04/01 06:58:42;;;;;;;;;;;;;;;;;;10446951;28;1264;-20
2021/04/01 07:04:10;;;;;;;;;;;;;;;;;;10451793;28;1939;-20
2021/04/01 07:15:00;;;;;;;;;;;;;;;;;;10448253;28;1168;-20
2021/04/01 07:48:56;;;;;;;;;;;;;;;;;;10478558;28;1076;-18
2021/04/01 07:54:23;;;;;;;;;;;;;;;;;;10489905;28;1064;-20
2021/04/01 07:59:52;;;;;;;;;;;;;;;;;;10489502;28;1228;-18
2021/04/01 08:05:13;;;;;;;;;;;;;;;;;;10489362;28;1910;-21
2021/04/01 08:10:41;;;;;;;;;;;;;;;;;;10489753;28;1109;-18
2021/04/01 08:16:03;;;;;;;;;;;;;;;;;;10489008;28;1025;-19
2021/04/01 08:21:30;;;;;;;;;;;;;;;;;;10486346;28;1902;-20
2021/04/01 08:27:28;;;;;;;;;;;;;;;;;;10459197;28;1108;-20
2021/04/01 08:33:39;;;;;;;;;;;;;;;;;;10446758;28;1139;-18
2021/04/01 08:39:13;;;;;;;;;;;;;;;;;;10445274;28;1092;-19
2021/04/01 08:45:26;;;;;;;;;;;;;;;;;;10446291;28;1874;-19
2021/04/01 08:51:13;;;;;;;;;;;;;;;;;;10446303;28;1036;-20
2021/04/01 08:57:00;;;;;;;;;;;;;;;;;;10446454;28;998;-19
2021/04/01 09:02:21;;;;;;;;;;;;;;;;;;10445537;28;1902;-21
2021/04/01 09:07:50;;;;;;;;;;;;;;;;;;10404395;28;1045;-20
2021/04/01 09:13:20;;;;;;;;;;;;;;;;;;10403882;28;1229;-20
2021/04/01 09:18:44;;;;;;;;;;;;;;;;;;10403961;28;1057;-20
2021/04/01 09:24:09;;;;;;;;;;;;;;;;;;10437417;28;1910;-18
2021/04/01 09:29:37;;;;;;;;;;;;;;;;;;10444556;28;1015;-20
2021/04/01 09:34:58;;;;;;;;;;;;;;;;;;10444238;28;1052;-20
2021/04/01 09:40:19;;;;;;;;;;;;;;;;;;10444062;28;1045;-19
2021/04/01 09:45:40;;;;;;;;;;;;;;;;;;10442996;28;1911;-19
2021/04/01 09:51:01;;;;;;;;;;;;;;;;;;10444081;28;1251;-18
2021/04/01 09:56:26;;;;;;;;;;;;;;;;;;10443830;28;1167;-19
2021/04/01 10:02:01;;;;;;;;;;;;;;;;;;10443538;28;1902;-19
2021/04/01 10:07:23;;;;;;;;;;;;;;;;;;10443540;28;1446;-20
2021/04/01 10:12:43;;;;;;;;;;;;;;;;;;10443247;28;1045;-20
2021/04/01 10:19:08;;;;;;;;;;;;;;;;;;7511355;39;1251;-20
2021/04/01 10:24:30;;;;;;;;;;;;;;;;;;7512718;39;1129;-20
2021/04/01 10:35:15;;;;;;;;;;;;;;;;;;7512292;39;1977;-20
2021/04/01 10:40:35;;;;;;;;;;;;;;;;;;7512118;39;989;-19
2021/04/01 10:45:59;;;;;;;;;;;;;;;;;;7509878;39;1171;-20
2021/04/01 10:51:21;;;;;;;;;;;;;;;;;;7512700;39;1111;-20
2021/04/01 10:57:02;;;;;;;;;;;;;;;;;;7493383;39;1997;-20
2021/04/01 11:02:23;;;;;;;;;;;;;;;;;;7488899;39;1106;-21
2021/04/01 11:07:47;;;;;;;;;;;;;;;;;;7471927;39;1242;-22
2021/04/01 11:13:08;;;;;;;;;;;;;;;;;;7470766;39;1003;-21
2021/04/01 11:18:28;;;;;;;;;;;;;;;;;;7468363;39;1975;-20
2021/04/01 11:23:49;;;;;;;;;;;;;;;;;;7468886;39;1075;-21
2021/04/01 11:29:13;;;;;;;;;;;;;;;;;;7456735;39;963;-19
2021/04/01 11:34:34;;;;;;;;;;;;;;;;;;7462720;39;1913;-20
2021/04/01 11:39:58;;;;;;;;;;;;;;;;;;7456144;39;1136;-19
2021/04/01 11:45:28;;;;;;;;;;;;;;;;;;7452807;39;1005;-20
2021/04/01 11:50:49;;;;;;;;;;;;;;;;;;7475187;39;1089;-20
2021/04/01 11:56:09;;;;;;;;;;;;;;;;;;7473757;39;1972;-20
2021/04/01 12:01:33;;;;;;;;;;;;;;;;;;7476317;39;1483;-20
2021/04/01 12:06:54;;;;;;;;;;;;;;;;;;7470859;39;1042;-20
2021/04/01 12:12:24;;;;;;;;;;;;;;;;;;7469262;39;1348;-20
2021/04/01 12:17:45;;;;;;;;;;;;;;;;;;7458449;39;1907;-19
2021/04/01 12:23:13;;;;;;;;;;;;;;;;;;7476994;39;1134;-22
2021/04/01 12:28:34;;;;;;;;;;;;;;;;;;7460388;39;1587;-20
2021/04/01 12:33:55;;;;;;;;;;;;;;;;;;7471798;39;1093;-21
2021/04/01 12:39:15;;;;;;;;;;;;;;;;;;7473826;39;2005;-18
2021/04/01 12:44:36;;;;;;;;;;;;;;;;;;7477642;39;985;-20
2021/04/01 12:50:00;;;;;;;;;;;;;;;;;;7463676;39;1172;-19
2021/04/01 12:55:35;;;;;;;;;;;;;;;;;;7473474;39;1894;-20
2021/04/01 13:01:00;;;;;;;;;;;;;;;;;;7214110;39;9999746;-20
2021/04/01 13:11:55;;;;;;;;;;;;;;;;;;7452314;39;990;-20
2021/04/01 13:17:16;;;;;;;;;;;;;;;;;;7453770;39;1918;-19
2021/04/01 13:28:16;;;;;;;;;;;;;;;;;;7452192;39;1580;-18
2021/04/01 13:33:58;;;;;;;;;;;;;;;;;;7452581;39;964;-19
2021/04/01 13:39:24;;;;;;;;;;;;;;;;;;7450219;39;1996;-20
2021/04/01 13:45:10;;;;;;;;;;;;;;;;;;7451899;39;985;-20
2021/04/01 13:50:28;;;;;;;;;;;;;;;;;;7464862;39;1391;-20
2021/04/01 13:55:54;;;;;;;;;;;;;;;;;;7470283;39;2126;-20
2021/04/01 14:12:28;;;;;;;;;;;;;;;;;;7458581;39;1012;-19
2021/04/01 14:18:03;;;;;;;;;;;;;;;;;;7461891;39;1996;-18
2021/04/01 14:23:26;;;;;;;;;;;;;;;;;;7443069;39;1245;-20
2021/04/01 14:28:47;;;;;;;;;;;;;;;;;;7459625;39;1138;-18
2021/04/01 14:34:07;;;;;;;;;;;;;;;;;;7461181;39;1030;-19
2021/04/01 14:39:30;;;;;;;;;;;;;;;;;;7459209;39;1906;-21
2021/04/01 14:44:51;;;;;;;;;;;;;;;;;;7464622;39;1067;-18
2021/04/01 14:50:12;;;;;;;;;;;;;;;;;;7469970;39;1020;-19
2021/04/01 14:55:32;;;;;;;;;;;;;;;;;;7471651;39;1981;-21
2021/04/01 15:00:53;;;;;;;;;;;;;;;;;;7453246;39;2387;-19
2021/04/01 15:06:13;;;;;;;;;;;;;;;;;;7467484;39;1587;-20
2021/04/01 15:11:35;;;;;;;;;;;;;;;;;;7466547;39;1228;-21
2021/04/01 15:16:55;;;;;;;;;;;;;;;;;;7471937;39;1914;-20
2021/04/01 15:22:16;;;;;;;;;;;;;;;;;;7475266;39;994;-19
2021/04/01 15:27:36;;;;;;;;;;;;;;;;;;7472413;39;950;-21
2021/04/01 15:32:57;;;;;;;;;;;;;;;;;;7475307;39;1048;-20
2021/04/01 15:38:17;;;;;;;;;;;;;;;;;;7472258;39;1980;-18
2021/04/01 15:43:38;;;;;;;;;;;;;;;;;;7474055;39;1053;-19
2021/04/01 15:48:58;;;;;;;;;;;;;;;;;;7458549;39;1156;-20
2021/04/01 15:54:19;;;;;;;;;;;;;;;;;;7474085;39;878;-19
2021/04/01 15:59:40;;;;;;;;;;;;;;;;;;7464029;39;2606;-19
2021/04/01 16:05:00;;;;;;;;;;;;;;;;;;7473988;39;957;-19
2021/04/01 16:10:21;;;;;;;;;;;;;;;;;;7467288;39;1942;-20
2021/04/01 16:15:45;;;;;;;;;;;;;;;;;;7451609;39;1920;-20
2021/04/01 16:21:05;;;;;;;;;;;;;;;;;;7472627;39;1459;-21
2021/04/01 16:26:26;;;;;;;;;;;;;;;;;;7474105;39;1050;-20
2021/04/01 16:31:50;;;;;;;;;;;;;;;;;;7474358;39;1007;-20
2021/04/01 16:37:11;;;;;;;;;;;;;;;;;;7471400;39;1999;-20
2021/04/01 16:42:32;;;;;;;;;;;;;;;;;;7472519;39;1111;-19
2021/04/01 16:47:52;;;;;;;;;;;;;;;;;;7455946;39;1242;-21
2021/04/01 16:53:14;;;;;;;;;;;;;;;;;;7467742;39;1165;-19
2021/04/01 16:58:34;;;;;;;;;;;;;;;;;;7471640;39;2732;-19
2021/04/01 17:03:56;;;;;;;;;;;;;;;;;;7473119;39;931;-19
2021/04/01 17:09:16;;;;;;;;;;;;;;;;;;7471106;39;1037;-19
2021/04/01 17:14:37;;;;;;;;;;;;;;;;;;7473091;39;1111;-20
2021/04/01 17:19:58;;;;;;;;;;;;;;;;;;7456395;39;1018;-19
2021/04/01 17:25:19;;;;;;;;;;;;;;;;;;7463061;39;1858;-20
2021/04/01 17:30:40;;;;;;;;;;;;;;;;;;7451732;39;914;-20
2021/04/01 17:36:00;;;;;;;;;;;;;;;;;;7399015;32;4410;-17
2021/04/01 17:41:20;;;;;;;;;;;;;;;;;;7394830;40;1152;-20
2021/04/01 17:46:41;;;;;;;;;;;;;;;;;;7394205;40;981;-17
2021/04/01 17:52:02;;;;;;;;;;;;;;;;;;7391530;40;1220;-19
2021/04/01 17:57:22;;;;;;;;;;;;;;;;;;7390549;40;2854;-18
2021/04/01 18:02:44;;;;;;;;;;;;;;;;;;7409441;40;1658;-20
2021/04/01 18:25:08;;;;;;;;;;;;;;;;;;7388619;40;1075;-19
2021/04/01 18:30:33;;;;;;;;;;;;;;;;;;7389005;40;1188;-19
2021/04/01 18:41:32;;;;;;;;;;;;;;;;;;7393216;40;988;-20
2021/04/01 18:52:40;;;;;;;;;;;;;;;;;;7389828;40;2164;-20
2021/04/01 18:58:03;;;;;;;;;;;;;;;;;;7382272;40;2114;-19
2021/04/01 19:03:25;;;;;;;;;;;;;;;;;;7392409;40;1076;-20
2021/04/01 19:08:53;;;;;;;;;;;;;;;;;;7390036;40;1112;-20
2021/04/01 19:25:28;;;;;;;;;;;;;;;;;;7389736;40;1072;-20
2021/04/01 19:30:48;;;;;;;;;;;;;;;;;;7391242;40;2247;-20
2021/04/01 19:36:10;;;;;;;;;;;;;;;;;;7381092;40;1895;-18
2021/04/01 19:41:32;;;;;;;;;;;;;;;;;;7369227;40;1142;-19
2021/04/01 19:46:56;;;;;;;;;;;;;;;;;;7371804;40;9346;-21
2021/04/01 19:52:17;;;;;;;;;;;;;;;;;;7389045;40;1049;-19
2021/04/01 19:57:37;;;;;;;;;;;;;;;;;;7390566;40;1987;-21
2021/04/01 20:02:59;;;;;;;;;;;;;;;;;;7388577;40;1451;-18
2021/04/01 20:08:19;;;;;;;;;;;;;;;;;;7382999;40;1181;-19
2021/04/01 20:13:40;;;;;;;;;;;;;;;;;;7393221;40;988;-20
2021/04/01 20:19:01;;;;;;;;;;;;;;;;;;7410775;40;1907;-20
2021/04/01 20:24:21;;;;;;;;;;;;;;;;;;7413882;40;1039;-19
2021/04/01 20:29:42;;;;;;;;;;;;;;;;;;7411985;40;998;-19
2021/04/01 20:35:04;;;;;;;;;;;;;;;;;;7397336;40;1077;-20
2021/04/01 20:40:24;;;;;;;;;;;;;;;;;;7414074;40;1015;-20
2021/04/01 20:45:44;;;;;;;;;;;;;;;;;;7413587;40;1157;-20
2021/04/01 20:51:05;;;;;;;;;;;;;;;;;;7411628;40;1147;-19
2021/04/01 20:56:40;;;;;;;;;;;;;;;;;;7412947;40;1898;-20
2021/04/01 21:02:15;;;;;;;;;;;;;;;;;;7413093;40;987;-20
2021/04/01 21:07:35;;;;;;;;;;;;;;;;;;7411559;40;1154;-20
2021/04/01 21:12:56;;;;;;;;;;;;;;;;;;7413251;40;1132;-19
2021/04/01 21:18:20;;;;;;;;;;;;;;;;;;7407225;40;1977;-18
2021/04/01 21:23:41;;;;;;;;;;;;;;;;;;7396186;40;18270;-20
2021/04/01 21:29:01;;;;;;;;;;;;;;;;;;7410491;40;935;-18
2021/04/01 21:34:22;;;;;;;;;;;;;;;;;;7405252;40;1166;-20
2021/04/01 21:39:43;;;;;;;;;;;;;;;;;;7411334;40;1971;-19
2021/04/01 21:45:07;;;;;;;;;;;;;;;;;;7413275;40;984;-20
2021/04/01 21:50:33;;;;;;;;;;;;;;;;;;7410093;40;2188;-19
2021/04/01 21:55:54;;;;;;;;;;;;;;;;;;7412849;40;1978;-19
2021/04/01 22:01:14;;;;;;;;;;;;;;;;;;7413036;40;1047;-20
2021/04/01 22:06:48;;;;;;;;;;;;;;;;;;7412053;40;1107;-20
2021/04/01 22:12:10;;;;;;;;;;;;;;;;;;7411830;40;1037;-19
2021/04/01 22:17:30;;;;;;;;;;;;;;;;;;7409814;40;1942;-18
2021/04/01 22:22:51;;;;;;;;;;;;;;;;;;7412250;40;1549;-19
2021/04/01 22:28:13;;;;;;;;;;;;;;;;;;7412442;40;1025;-18
2021/04/01 22:33:35;;;;;;;;;;;;;;;;;;7412725;40;1192;-19
2021/04/01 22:38:56;;;;;;;;;;;;;;;;;;7409635;40;1971;-20
2021/04/01 22:44:16;;;;;;;;;;;;;;;;;;7412555;40;1128;-19
2021/04/01 22:49:37;;;;;;;;;;;;;;;;;;7411842;40;1162;-19
2021/04/01 22:54:57;;;;;;;;;;;;;;;;;;7412055;40;1000;-21
2021/04/01 23:00:34;;;;;;;;;;;;;;;;;;7409062;40;1901;-20
2021/04/01 23:05:55;;;;;;;;;;;;;;;;;;7412039;40;1134;-21
2021/04/01 23:11:15;;;;;;;;;;;;;;;;;;7409918;40;1065;-19
2021/04/01 23:16:35;;;;;;;;;;;;;;;;;;7411444;40;1967;-19
2021/04/01 23:21:56;;;;;;;;;;;;;;;;;;7411510;40;1256;-19
2021/04/01 23:27:16;;;;;;;;;;;;;;;;;;7415415;40;989;-21
2021/04/01 23:32:37;;;;;;;;;;;;;;;;;;7415017;40;996;-19
2021/04/01 23:37:57;;;;;;;;;;;;;;;;;;7412530;40;1897;-18
2021/04/01 23:43:18;;;;;;;;;;;;;;;;;;7414373;40;1009;-19
2021/04/01 23:48:38;;;;;;;;;;;;;;;;;;7414903;40;1162;-19
2021/04/01 23:53:58;;;;;;;;;;;;;;;;;;7414670;40;1027;-20
2021/04/01 23:59:19;;;;;;;;;;;;;;;;;;7404399;40;1972;-20
